sensor_id;sensor_type;location;lat;lon;timestamp;P1;durP1;ratioP1;P2;durP2;ratioP2
49450;SDS011;35336;48.400;10.886;2023-07-02T00:00:07;7.07;;;2.13;;
49450;SDS011;35336;48.400;10.886;2023-07-02T00:00:24;7.03;;;2.03;;
49450;SDS011;35336;48.400;10.886;2023-07-02T00:00:39;4.20;;;2.00;;
49450;SDS011;35336;48.400;10.886;2023-07-02T00:00:54;3.15;;;1.92;;
49450;SDS011;35336;48.400;10.886;2023-07-02T00:01:10;2.90;;;2.00;;
49450;SDS011;35336;48.400;10.886;2023-07-02T00:01:25;2.37;;;2.00;;
49450;SDS011;35336;48.400;10.886;2023-07-02T00:01:42;2.70;;;1.90;;
49450;SDS011;35336;48.400;10.886;2023-07-02T00:01:58;2.10;;;1.70;;
49450;SDS011;35336;48.400;10.886;2023-07-02T00:02:13;2.00;;;1.73;;
49450;SDS011;35336;48.400;10.886;2023-07-02T00:02:29;2.63;;;1.80;;
49450;SDS011;35336;48.400;10.886;2023-07-02T00:02:46;2.63;;;1.80;;
49450;SDS011;35336;48.400;10.886;2023-07-02T00:03:02;3.10;;;1.70;;
49450;SDS011;35336;48.400;10.886;2023-07-02T00:03:17;2.90;;;1.57;;
49450;SDS011;35336;48.400;10.886;2023-07-02T00:03:32;5.88;;;1.77;;
49450;SDS011;35336;48.400;10.886;2023-07-02T00:03:48;7.37;;;2.10;;
49450;SDS011;35336;48.400;10.886;2023-07-02T00:04:03;4.50;;;2.10;;
49450;SDS011;35336;48.400;10.886;2023-07-02T00:04:18;3.75;;;2.13;;
49450;SDS011;35336;48.400;10.886;2023-07-02T00:04:34;4.40;;;1.97;;
49450;SDS011;35336;48.400;10.886;2023-07-02T00:04:49;4.53;;;2.00;;
49450;SDS011;35336;48.400;10.886;2023-07-02T00:05:04;3.93;;;1.90;;
49450;SDS011;35336;48.400;10.886;2023-07-02T00:05:21;3.30;;;1.80;;
49450;SDS011;35336;48.400;10.886;2023-07-02T00:05:36;3.87;;;1.80;;
49450;SDS011;35336;48.400;10.886;2023-07-02T00:05:54;4.43;;;1.90;;
49450;SDS011;35336;48.400;10.886;2023-07-02T00:06:09;4.45;;;2.00;;
49450;SDS011;35336;48.400;10.886;2023-07-02T00:06:29;3.35;;;2.10;;
49450;SDS011;35336;48.400;10.886;2023-07-02T00:06:47;4.50;;;2.30;;
49450;SDS011;35336;48.400;10.886;2023-07-02T00:07:05;7.85;;;2.10;;
49450;SDS011;35336;48.400;10.886;2023-07-02T00:07:20;7.90;;;1.83;;
49450;SDS011;35336;48.400;10.886;2023-07-02T00:07:36;4.03;;;1.93;;
49450;SDS011;35336;48.400;10.886;2023-07-02T00:07:54;4.47;;;2.03;;
49450;SDS011;35336;48.400;10.886;2023-07-02T00:08:09;3.50;;;1.90;;
49450;SDS011;35336;48.400;10.886;2023-07-02T00:08:24;2.73;;;1.80;;
49450;SDS011;35336;48.400;10.886;2023-07-02T00:08:39;3.15;;;1.75;;
49450;SDS011;35336;48.400;10.886;2023-07-02T00:08:55;3.17;;;1.90;;
49450;SDS011;35336;48.400;10.886;2023-07-02T00:09:12;3.30;;;1.90;;
49450;SDS011;35336;48.400;10.886;2023-07-02T00:09:28;4.93;;;1.88;;
49450;SDS011;35336;48.400;10.886;2023-07-02T00:09:44;5.57;;;1.90;;
49450;SDS011;35336;48.400;10.886;2023-07-02T00:10:01;3.40;;;2.00;;
49450;SDS011;35336;48.400;10.886;2023-07-02T00:10:17;4.07;;;2.03;;
49450;SDS011;35336;48.400;10.886;2023-07-02T00:10:32;3.60;;;1.90;;
49450;SDS011;35336;48.400;10.886;2023-07-02T00:10:48;2.42;;;1.75;;
49450;SDS011;35336;48.400;10.886;2023-07-02T00:11:03;5.03;;;2.00;;
49450;SDS011;35336;48.400;10.886;2023-07-02T00:11:18;5.20;;;2.20;;
49450;SDS011;35336;48.400;10.886;2023-07-02T00:11:34;3.15;;;2.05;;
49450;SDS011;35336;48.400;10.886;2023-07-02T00:11:49;5.83;;;1.90;;
49450;SDS011;35336;48.400;10.886;2023-07-02T00:12:04;7.57;;;2.10;;
49450;SDS011;35336;48.400;10.886;2023-07-02T00:12:22;4.00;;;2.00;;
49450;SDS011;35336;48.400;10.886;2023-07-02T00:12:37;2.73;;;1.90;;
49450;SDS011;35336;48.400;10.886;2023-07-02T00:12:53;2.85;;;1.80;;
49450;SDS011;35336;48.400;10.886;2023-07-02T00:13:08;4.00;;;1.90;;
49450;SDS011;35336;48.400;10.886;2023-07-02T00:13:23;3.70;;;1.80;;
49450;SDS011;35336;48.400;10.886;2023-07-02T00:13:39;3.40;;;1.75;;
49450;SDS011;35336;48.400;10.886;2023-07-02T00:13:54;4.90;;;2.00;;
49450;SDS011;35336;48.400;10.886;2023-07-02T00:14:09;6.77;;;2.13;;
49450;SDS011;35336;48.400;10.886;2023-07-02T00:14:25;5.60;;;2.20;;
49450;SDS011;35336;48.400;10.886;2023-07-02T00:14:40;3.50;;;2.20;;
49450;SDS011;35336;48.400;10.886;2023-07-02T00:15:00;3.95;;;1.77;;
49450;SDS011;35336;48.400;10.886;2023-07-02T00:15:16;3.05;;;1.83;;
49450;SDS011;35336;48.400;10.886;2023-07-02T00:15:31;2.73;;;1.83;;
49450;SDS011;35336;48.400;10.886;2023-07-02T00:15:49;2.60;;;1.70;;
49450;SDS011;35336;48.400;10.886;2023-07-02T00:16:04;4.85;;;1.80;;
49450;SDS011;35336;48.400;10.886;2023-07-02T00:16:20;7.57;;;1.90;;
49450;SDS011;35336;48.400;10.886;2023-07-02T00:16:38;5.97;;;1.97;;
49450;SDS011;35336;48.400;10.886;2023-07-02T00:16:56;2.72;;;1.70;;
49450;SDS011;35336;48.400;10.886;2023-07-02T00:17:12;2.60;;;1.70;;
49450;SDS011;35336;48.400;10.886;2023-07-02T00:17:27;2.77;;;1.70;;
49450;SDS011;35336;48.400;10.886;2023-07-02T00:17:42;3.47;;;2.00;;
49450;SDS011;35336;48.400;10.886;2023-07-02T00:17:58;3.33;;;2.00;;
49450;SDS011;35336;48.400;10.886;2023-07-02T00:18:13;5.30;;;1.90;;
49450;SDS011;35336;48.400;10.886;2023-07-02T00:18:28;5.70;;;2.07;;
49450;SDS011;35336;48.400;10.886;2023-07-02T00:18:44;4.15;;;1.88;;
49450;SDS011;35336;48.400;10.886;2023-07-02T00:18:59;5.10;;;1.80;;
49450;SDS011;35336;48.400;10.886;2023-07-02T00:19:17;4.07;;;1.93;;
49450;SDS011;35336;48.400;10.886;2023-07-02T00:19:34;4.28;;;2.28;;
49450;SDS011;35336;48.400;10.886;2023-07-02T00:19:52;4.68;;;2.22;;
49450;SDS011;35336;48.400;10.886;2023-07-02T00:20:08;3.78;;;2.05;;
49450;SDS011;35336;48.400;10.886;2023-07-02T00:20:26;6.88;;;2.10;;
49450;SDS011;35336;48.400;10.886;2023-07-02T00:20:41;6.68;;;1.90;;
49450;SDS011;35336;48.400;10.886;2023-07-02T00:21:02;3.55;;;2.10;;
49450;SDS011;35336;48.400;10.886;2023-07-02T00:21:22;3.33;;;2.33;;
49450;SDS011;35336;48.400;10.886;2023-07-02T00:21:38;5.10;;;2.30;;
49450;SDS011;35336;48.400;10.886;2023-07-02T00:21:55;5.57;;;1.97;;
49450;SDS011;35336;48.400;10.886;2023-07-02T00:22:11;4.53;;;1.70;;
49450;SDS011;35336;48.400;10.886;2023-07-02T00:22:29;3.67;;;1.90;;
49450;SDS011;35336;48.400;10.886;2023-07-02T00:22:44;3.78;;;1.90;;
49450;SDS011;35336;48.400;10.886;2023-07-02T00:22:59;4.37;;;1.80;;
49450;SDS011;35336;48.400;10.886;2023-07-02T00:23:17;7.00;;;1.98;;
49450;SDS011;35336;48.400;10.886;2023-07-02T00:23:32;4.23;;;1.80;;
49450;SDS011;35336;48.400;10.886;2023-07-02T00:23:48;1.75;;;1.65;;
49450;SDS011;35336;48.400;10.886;2023-07-02T00:24:03;2.27;;;1.67;;
49450;SDS011;35336;48.400;10.886;2023-07-02T00:24:19;5.03;;;2.10;;
49450;SDS011;35336;48.400;10.886;2023-07-02T00:24:36;4.83;;;2.10;;
49450;SDS011;35336;48.400;10.886;2023-07-02T00:24:54;3.33;;;1.85;;
49450;SDS011;35336;48.400;10.886;2023-07-02T00:25:09;3.87;;;1.80;;
49450;SDS011;35336;48.400;10.886;2023-07-02T00:25:25;2.95;;;1.90;;
49450;SDS011;35336;48.400;10.886;2023-07-02T00:25:40;3.00;;;2.00;;
49450;SDS011;35336;48.400;10.886;2023-07-02T00:25:58;2.70;;;1.60;;
49450;SDS011;35336;48.400;10.886;2023-07-02T00:26:13;2.63;;;1.70;;
49450;SDS011;35336;48.400;10.886;2023-07-02T00:26:32;4.53;;;1.67;;
49450;SDS011;35336;48.400;10.886;2023-07-02T00:26:47;2.65;;;1.50;;
49450;SDS011;35336;48.400;10.886;2023-07-02T00:27:02;2.17;;;1.93;;
49450;SDS011;35336;48.400;10.886;2023-07-02T00:27:18;3.38;;;2.00;;
49450;SDS011;35336;48.400;10.886;2023-07-02T00:27:33;4.50;;;1.97;;
49450;SDS011;35336;48.400;10.886;2023-07-02T00:27:51;3.00;;;2.03;;
49450;SDS011;35336;48.400;10.886;2023-07-02T00:28:06;3.03;;;1.93;;
49450;SDS011;35336;48.400;10.886;2023-07-02T00:28:22;4.80;;;2.10;;
49450;SDS011;35336;48.400;10.886;2023-07-02T00:28:37;5.35;;;2.00;;
49450;SDS011;35336;48.400;10.886;2023-07-02T00:28:55;4.10;;;2.00;;
49450;SDS011;35336;48.400;10.886;2023-07-02T00:29:13;4.65;;;2.20;;
49450;SDS011;35336;48.400;10.886;2023-07-02T00:29:28;3.93;;;1.93;;
49450;SDS011;35336;48.400;10.886;2023-07-02T00:29:49;4.68;;;1.90;;
49450;SDS011;35336;48.400;10.886;2023-07-02T00:30:04;3.05;;;1.73;;
49450;SDS011;35336;48.400;10.886;2023-07-02T00:30:20;4.32;;;1.80;;
49450;SDS011;35336;48.400;10.886;2023-07-02T00:30:38;5.50;;;2.33;;
49450;SDS011;35336;48.400;10.886;2023-07-02T00:30:55;3.65;;;2.22;;
49450;SDS011;35336;48.400;10.886;2023-07-02T00:31:11;3.57;;;1.80;;
49450;SDS011;35336;48.400;10.886;2023-07-02T00:31:26;3.75;;;1.83;;
49450;SDS011;35336;48.400;10.886;2023-07-02T00:31:44;3.33;;;1.95;;
49450;SDS011;35336;48.400;10.886;2023-07-02T00:32:01;3.38;;;2.35;;
49450;SDS011;35336;48.400;10.886;2023-07-02T00:32:19;3.50;;;2.20;;
49450;SDS011;35336;48.400;10.886;2023-07-02T00:32:36;3.40;;;1.80;;
49450;SDS011;35336;48.400;10.886;2023-07-02T00:32:54;3.10;;;1.80;;
49450;SDS011;35336;48.400;10.886;2023-07-02T00:33:10;2.78;;;1.70;;
49450;SDS011;35336;48.400;10.886;2023-07-02T00:33:25;2.90;;;1.77;;
49450;SDS011;35336;48.400;10.886;2023-07-02T00:33:40;4.77;;;1.80;;
49450;SDS011;35336;48.400;10.886;2023-07-02T00:33:58;5.72;;;1.85;;
49450;SDS011;35336;48.400;10.886;2023-07-02T00:34:14;3.67;;;1.60;;
49450;SDS011;35336;48.400;10.886;2023-07-02T00:34:29;2.75;;;1.70;;
49450;SDS011;35336;48.400;10.886;2023-07-02T00:34:44;4.17;;;1.77;;
49450;SDS011;35336;48.400;10.886;2023-07-02T00:34:59;5.03;;;1.70;;
49450;SDS011;35336;48.400;10.886;2023-07-02T00:35:17;4.60;;;1.80;;
49450;SDS011;35336;48.400;10.886;2023-07-02T00:35:35;5.00;;;1.90;;
49450;SDS011;35336;48.400;10.886;2023-07-02T00:35:50;3.57;;;1.83;;
49450;SDS011;35336;48.400;10.886;2023-07-02T00:36:05;3.42;;;1.70;;
49450;SDS011;35336;48.400;10.886;2023-07-02T00:36:20;3.77;;;1.97;;
49450;SDS011;35336;48.400;10.886;2023-07-02T00:36:36;4.40;;;2.13;;
49450;SDS011;35336;48.400;10.886;2023-07-02T00:36:51;5.43;;;1.88;;
49450;SDS011;35336;48.400;10.886;2023-07-02T00:37:07;4.00;;;1.77;;
49450;SDS011;35336;48.400;10.886;2023-07-02T00:37:24;3.40;;;1.87;;
49450;SDS011;35336;48.400;10.886;2023-07-02T00:37:39;5.72;;;2.15;;
49450;SDS011;35336;48.400;10.886;2023-07-02T00:37:55;4.43;;;1.97;;
49450;SDS011;35336;48.400;10.886;2023-07-02T00:38:12;2.67;;;1.60;;
49450;SDS011;35336;48.400;10.886;2023-07-02T00:38:28;3.27;;;1.40;;
49450;SDS011;35336;48.400;10.886;2023-07-02T00:38:46;4.53;;;1.60;;
49450;SDS011;35336;48.400;10.886;2023-07-02T00:39:03;3.25;;;1.65;;
49450;SDS011;35336;48.400;10.886;2023-07-02T00:39:18;3.15;;;1.55;;
49450;SDS011;35336;48.400;10.886;2023-07-02T00:39:36;3.95;;;1.85;;
49450;SDS011;35336;48.400;10.886;2023-07-02T00:39:51;3.43;;;1.77;;
49450;SDS011;35336;48.400;10.886;2023-07-02T00:40:06;2.60;;;1.60;;
49450;SDS011;35336;48.400;10.886;2023-07-02T00:40:22;1.85;;;1.40;;
49450;SDS011;35336;48.400;10.886;2023-07-02T00:40:37;2.33;;;1.50;;
49450;SDS011;35336;48.400;10.886;2023-07-02T00:40:53;2.80;;;1.40;;
49450;SDS011;35336;48.400;10.886;2023-07-02T00:41:10;2.67;;;1.30;;
49450;SDS011;35336;48.400;10.886;2023-07-02T00:41:25;2.92;;;1.48;;
49450;SDS011;35336;48.400;10.886;2023-07-02T00:41:41;3.47;;;1.50;;
49450;SDS011;35336;48.400;10.886;2023-07-02T00:42:00;3.22;;;1.67;;
49450;SDS011;35336;48.400;10.886;2023-07-02T00:42:16;3.17;;;1.90;;
49450;SDS011;35336;48.400;10.886;2023-07-02T00:42:32;4.00;;;1.80;;
49450;SDS011;35336;48.400;10.886;2023-07-02T00:42:47;2.93;;;1.57;;
49450;SDS011;35336;48.400;10.886;2023-07-02T00:43:02;2.85;;;1.70;;
49450;SDS011;35336;48.400;10.886;2023-07-02T00:43:17;7.23;;;1.73;;
49450;SDS011;35336;48.400;10.886;2023-07-02T00:43:33;7.37;;;1.80;;
49450;SDS011;35336;48.400;10.886;2023-07-02T00:43:50;3.90;;;1.90;;
49450;SDS011;35336;48.400;10.886;2023-07-02T00:44:08;4.00;;;1.70;;
49450;SDS011;35336;48.400;10.886;2023-07-02T00:44:23;4.55;;;1.58;;
49450;SDS011;35336;48.400;10.886;2023-07-02T00:44:38;3.30;;;1.60;;
49450;SDS011;35336;48.400;10.886;2023-07-02T00:44:54;2.60;;;1.70;;
49450;SDS011;35336;48.400;10.886;2023-07-02T00:45:09;3.40;;;1.70;;
49450;SDS011;35336;48.400;10.886;2023-07-02T00:45:25;5.80;;;1.58;;
49450;SDS011;35336;48.400;10.886;2023-07-02T00:45:42;4.72;;;1.60;;
49450;SDS011;35336;48.400;10.886;2023-07-02T00:45:57;3.42;;;1.52;;
49450;SDS011;35336;48.400;10.886;2023-07-02T00:46:13;3.90;;;1.87;;
49450;SDS011;35336;48.400;10.886;2023-07-02T00:46:30;2.28;;;1.75;;
49450;SDS011;35336;48.400;10.886;2023-07-02T00:46:46;2.70;;;1.47;;
49450;SDS011;35336;48.400;10.886;2023-07-02T00:47:03;2.72;;;1.40;;
49450;SDS011;35336;48.400;10.886;2023-07-02T00:47:21;2.42;;;1.55;;
49450;SDS011;35336;48.400;10.886;2023-07-02T00:47:38;2.60;;;1.70;;
49450;SDS011;35336;48.400;10.886;2023-07-02T00:47:54;3.40;;;1.60;;
49450;SDS011;35336;48.400;10.886;2023-07-02T00:48:10;3.22;;;1.50;;
49450;SDS011;35336;48.400;10.886;2023-07-02T00:48:25;3.57;;;1.43;;
49450;SDS011;35336;48.400;10.886;2023-07-02T00:48:46;1.80;;;1.58;;
49450;SDS011;35336;48.400;10.886;2023-07-02T00:49:10;1.75;;;1.55;;
49450;SDS011;35336;48.400;10.886;2023-07-02T00:49:26;2.17;;;1.60;;
49450;SDS011;35336;48.400;10.886;2023-07-02T00:49:41;3.15;;;1.50;;
49450;SDS011;35336;48.400;10.886;2023-07-02T00:49:57;3.37;;;1.40;;
49450;SDS011;35336;48.400;10.886;2023-07-02T00:50:12;6.37;;;1.90;;
49450;SDS011;35336;48.400;10.886;2023-07-02T00:50:28;5.45;;;1.90;;
49450;SDS011;35336;48.400;10.886;2023-07-02T00:50:46;2.40;;;1.50;;
49450;SDS011;35336;48.400;10.886;2023-07-02T00:51:01;2.47;;;1.50;;
49450;SDS011;35336;48.400;10.886;2023-07-02T00:51:18;2.55;;;1.52;;
49450;SDS011;35336;48.400;10.886;2023-07-02T00:51:38;2.72;;;1.60;;
49450;SDS011;35336;48.400;10.886;2023-07-02T00:51:56;2.15;;;1.50;;
49450;SDS011;35336;48.400;10.886;2023-07-02T00:52:11;2.05;;;1.40;;
49450;SDS011;35336;48.400;10.886;2023-07-02T00:52:29;1.92;;;1.42;;
49450;SDS011;35336;48.400;10.886;2023-07-02T00:52:46;2.45;;;1.60;;
49450;SDS011;35336;48.400;10.886;2023-07-02T00:53:04;2.60;;;1.60;;
49450;SDS011;35336;48.400;10.886;2023-07-02T00:53:20;2.17;;;1.55;;
49450;SDS011;35336;48.400;10.886;2023-07-02T00:53:35;2.40;;;1.43;;
49450;SDS011;35336;48.400;10.886;2023-07-02T00:53:53;2.85;;;1.40;;
49450;SDS011;35336;48.400;10.886;2023-07-02T00:54:13;2.13;;;1.50;;
49450;SDS011;35336;48.400;10.886;2023-07-02T00:54:28;2.67;;;1.40;;
49450;SDS011;35336;48.400;10.886;2023-07-02T00:54:47;2.75;;;1.50;;
49450;SDS011;35336;48.400;10.886;2023-07-02T00:55:05;3.17;;;1.73;;
49450;SDS011;35336;48.400;10.886;2023-07-02T00:55:24;2.58;;;1.55;;
49450;SDS011;35336;48.400;10.886;2023-07-02T00:55:39;2.88;;;1.50;;
49450;SDS011;35336;48.400;10.886;2023-07-02T00:55:55;3.67;;;1.50;;
49450;SDS011;35336;48.400;10.886;2023-07-02T00:56:10;5.00;;;1.90;;
49450;SDS011;35336;48.400;10.886;2023-07-02T00:56:26;3.93;;;1.90;;
49450;SDS011;35336;48.400;10.886;2023-07-02T00:56:44;1.48;;;1.30;;
49450;SDS011;35336;48.400;10.886;2023-07-02T00:57:01;1.58;;;1.40;;
49450;SDS011;35336;48.400;10.886;2023-07-02T00:57:17;1.60;;;1.27;;
49450;SDS011;35336;48.400;10.886;2023-07-02T00:57:33;2.13;;;1.23;;
49450;SDS011;35336;48.400;10.886;2023-07-02T00:57:48;2.37;;;1.40;;
49450;SDS011;35336;48.400;10.886;2023-07-02T00:58:04;2.43;;;1.47;;
49450;SDS011;35336;48.400;10.886;2023-07-02T00:58:20;2.47;;;1.40;;
49450;SDS011;35336;48.400;10.886;2023-07-02T00:58:37;2.15;;;1.42;;
49450;SDS011;35336;48.400;10.886;2023-07-02T00:58:55;2.53;;;1.50;;
49450;SDS011;35336;48.400;10.886;2023-07-02T00:59:10;5.13;;;1.50;;
49450;SDS011;35336;48.400;10.886;2023-07-02T00:59:29;4.88;;;1.50;;
49450;SDS011;35336;48.400;10.886;2023-07-02T00:59:47;2.42;;;1.58;;
49450;SDS011;35336;48.400;10.886;2023-07-02T01:00:02;1.75;;;1.45;;
49450;SDS011;35336;48.400;10.886;2023-07-02T01:00:18;1.65;;;1.40;;
49450;SDS011;35336;48.400;10.886;2023-07-02T01:00:37;3.00;;;1.45;;
49450;SDS011;35336;48.400;10.886;2023-07-02T01:00:52;3.80;;;1.47;;
49450;SDS011;35336;48.400;10.886;2023-07-02T01:01:07;3.13;;;1.40;;
49450;SDS011;35336;48.400;10.886;2023-07-02T01:01:23;3.28;;;1.40;;
49450;SDS011;35336;48.400;10.886;2023-07-02T01:01:40;5.78;;;1.60;;
49450;SDS011;35336;48.400;10.886;2023-07-02T01:01:55;4.80;;;1.50;;
49450;SDS011;35336;48.400;10.886;2023-07-02T01:02:11;2.20;;;1.25;;
49450;SDS011;35336;48.400;10.886;2023-07-02T01:02:28;1.93;;;1.30;;
49450;SDS011;35336;48.400;10.886;2023-07-02T01:02:47;2.33;;;1.43;;
49450;SDS011;35336;48.400;10.886;2023-07-02T01:03:10;1.95;;;1.20;;
49450;SDS011;35336;48.400;10.886;2023-07-02T01:03:26;4.97;;;1.40;;
49450;SDS011;35336;48.400;10.886;2023-07-02T01:04:11;3.55;;;1.40;;
49450;SDS011;35336;48.400;10.886;2023-07-02T01:04:29;2.40;;;1.30;;
49450;SDS011;35336;48.400;10.886;2023-07-02T01:04:44;1.45;;;1.27;;
49450;SDS011;35336;48.400;10.886;2023-07-02T01:04:59;1.30;;;1.20;;
49450;SDS011;35336;48.400;10.886;2023-07-02T01:05:17;1.90;;;1.30;;
49450;SDS011;35336;48.400;10.886;2023-07-02T01:05:32;2.03;;;1.40;;
49450;SDS011;35336;48.400;10.886;2023-07-02T01:05:50;2.55;;;1.33;;
49450;SDS011;35336;48.400;10.886;2023-07-02T01:06:05;3.08;;;1.52;;
49450;SDS011;35336;48.400;10.886;2023-07-02T01:06:26;3.70;;;1.58;;
49450;SDS011;35336;48.400;10.886;2023-07-02T01:06:43;3.90;;;1.48;;
49450;SDS011;35336;48.400;10.886;2023-07-02T01:06:59;2.88;;;1.60;;
49450;SDS011;35336;48.400;10.886;2023-07-02T01:07:14;2.77;;;1.53;;
49450;SDS011;35336;48.400;10.886;2023-07-02T01:07:32;2.08;;;1.33;;
49450;SDS011;35336;48.400;10.886;2023-07-02T01:07:47;2.83;;;1.33;;
49450;SDS011;35336;48.400;10.886;2023-07-02T01:08:05;2.57;;;1.37;;
49450;SDS011;35336;48.400;10.886;2023-07-02T01:08:23;1.38;;;1.08;;
49450;SDS011;35336;48.400;10.886;2023-07-02T01:08:40;2.03;;;1.27;;
49450;SDS011;35336;48.400;10.886;2023-07-02T01:08:57;2.92;;;1.35;;
49450;SDS011;35336;48.400;10.886;2023-07-02T01:09:19;2.13;;;1.30;;
49450;SDS011;35336;48.400;10.886;2023-07-02T01:09:35;1.55;;;1.30;;
49450;SDS011;35336;48.400;10.886;2023-07-02T01:09:51;2.33;;;1.20;;
49450;SDS011;35336;48.400;10.886;2023-07-02T01:10:09;2.85;;;1.50;;
49450;SDS011;35336;48.400;10.886;2023-07-02T01:10:24;2.00;;;1.45;;
49450;SDS011;35336;48.400;10.886;2023-07-02T01:10:39;1.53;;;1.20;;
49450;SDS011;35336;48.400;10.886;2023-07-02T01:10:57;2.65;;;1.15;;
49450;SDS011;35336;48.400;10.886;2023-07-02T01:11:19;3.40;;;1.33;;
49450;SDS011;35336;48.400;10.886;2023-07-02T01:11:41;3.28;;;1.63;;
49450;SDS011;35336;48.400;10.886;2023-07-02T01:11:57;2.42;;;1.52;;
49450;SDS011;35336;48.400;10.886;2023-07-02T01:12:15;2.47;;;1.60;;
49450;SDS011;35336;48.400;10.886;2023-07-02T01:12:32;2.13;;;1.30;;
49450;SDS011;35336;48.400;10.886;2023-07-02T01:12:49;1.33;;;1.00;;
49450;SDS011;35336;48.400;10.886;2023-07-02T01:13:14;2.33;;;1.25;;
49450;SDS011;35336;48.400;10.886;2023-07-02T01:13:34;2.97;;;1.40;;
49450;SDS011;35336;48.400;10.886;2023-07-02T01:13:49;1.73;;;1.20;;
49450;SDS011;35336;48.400;10.886;2023-07-02T01:14:23;2.25;;;1.48;;
49450;SDS011;35336;48.400;10.886;2023-07-02T01:14:43;2.40;;;1.35;;
49450;SDS011;35336;48.400;10.886;2023-07-02T01:15:06;1.63;;;1.15;;
49450;SDS011;35336;48.400;10.886;2023-07-02T01:15:23;2.63;;;1.35;;
49450;SDS011;35336;48.400;10.886;2023-07-02T01:15:38;3.67;;;1.40;;
49450;SDS011;35336;48.400;10.886;2023-07-02T01:15:54;2.95;;;1.23;;
49450;SDS011;35336;48.400;10.886;2023-07-02T01:16:10;1.98;;;1.40;;
49450;SDS011;35336;48.400;10.886;2023-07-02T01:16:28;1.77;;;1.30;;
49450;SDS011;35336;48.400;10.886;2023-07-02T01:16:44;5.72;;;1.48;;
49450;SDS011;35336;48.400;10.886;2023-07-02T01:17:02;4.72;;;1.67;;
49450;SDS011;35336;48.400;10.886;2023-07-02T01:17:24;5.20;;;1.50;;
49450;SDS011;35336;48.400;10.886;2023-07-02T01:17:44;6.15;;;1.25;;
49450;SDS011;35336;48.400;10.886;2023-07-02T01:18:02;3.60;;;1.20;;
49450;SDS011;35336;48.400;10.886;2023-07-02T01:18:19;2.00;;;1.10;;
49450;SDS011;35336;48.400;10.886;2023-07-02T01:18:34;2.38;;;1.23;;
49450;SDS011;35336;48.400;10.886;2023-07-02T01:18:50;2.37;;;1.30;;
49450;SDS011;35336;48.400;10.886;2023-07-02T01:19:13;1.90;;;1.20;;
49450;SDS011;35336;48.400;10.886;2023-07-02T01:19:51;2.00;;;1.20;;
49450;SDS011;35336;48.400;10.886;2023-07-02T01:20:11;2.50;;;1.35;;
49450;SDS011;35336;48.400;10.886;2023-07-02T01:20:27;3.55;;;1.33;;
49450;SDS011;35336;48.400;10.886;2023-07-02T01:20:43;3.70;;;1.30;;
49450;SDS011;35336;48.400;10.886;2023-07-02T01:20:59;1.75;;;1.30;;
49450;SDS011;35336;48.400;10.886;2023-07-02T01:21:16;1.33;;;1.23;;
49450;SDS011;35336;48.400;10.886;2023-07-02T01:21:35;1.75;;;1.38;;
49450;SDS011;35336;48.400;10.886;2023-07-02T01:21:51;1.92;;;1.25;;
49450;SDS011;35336;48.400;10.886;2023-07-02T01:22:07;1.73;;;1.17;;
49450;SDS011;35336;48.400;10.886;2023-07-02T01:22:23;2.38;;;1.45;;
49450;SDS011;35336;48.400;10.886;2023-07-02T01:22:43;1.85;;;1.20;;
49450;SDS011;35336;48.400;10.886;2023-07-02T01:23:00;2.60;;;1.23;;
49450;SDS011;35336;48.400;10.886;2023-07-02T01:23:16;6.00;;;1.35;;
49450;SDS011;35336;48.400;10.886;2023-07-02T01:23:32;4.33;;;1.30;;
49450;SDS011;35336;48.400;10.886;2023-07-02T01:23:48;2.00;;;1.17;;
49450;SDS011;35336;48.400;10.886;2023-07-02T01:24:06;1.40;;;1.20;;
49450;SDS011;35336;48.400;10.886;2023-07-02T01:24:23;1.47;;;1.20;;
49450;SDS011;35336;48.400;10.886;2023-07-02T01:24:39;1.55;;;1.30;;
49450;SDS011;35336;48.400;10.886;2023-07-02T01:24:54;1.58;;;1.20;;
49450;SDS011;35336;48.400;10.886;2023-07-02T01:25:12;1.47;;;1.20;;
49450;SDS011;35336;48.400;10.886;2023-07-02T01:25:30;1.75;;;1.27;;
49450;SDS011;35336;48.400;10.886;2023-07-02T01:25:45;2.13;;;1.27;;
49450;SDS011;35336;48.400;10.886;2023-07-02T01:26:00;2.43;;;1.30;;
49450;SDS011;35336;48.400;10.886;2023-07-02T01:26:16;3.43;;;1.50;;
49450;SDS011;35336;48.400;10.886;2023-07-02T01:26:35;2.60;;;1.35;;
49450;SDS011;35336;48.400;10.886;2023-07-02T01:26:50;2.08;;;1.17;;
49450;SDS011;35336;48.400;10.886;2023-07-02T01:27:06;1.73;;;1.30;;
49450;SDS011;35336;48.400;10.886;2023-07-02T01:27:21;1.55;;;1.40;;
49450;SDS011;35336;48.400;10.886;2023-07-02T01:27:37;1.60;;;1.30;;
49450;SDS011;35336;48.400;10.886;2023-07-02T01:27:52;1.48;;;1.23;;
49450;SDS011;35336;48.400;10.886;2023-07-02T01:28:07;1.40;;;1.20;;
49450;SDS011;35336;48.400;10.886;2023-07-02T01:28:23;1.90;;;1.30;;
49450;SDS011;35336;48.400;10.886;2023-07-02T01:28:38;1.92;;;1.23;;
49450;SDS011;35336;48.400;10.886;2023-07-02T01:28:53;1.77;;;1.10;;
49450;SDS011;35336;48.400;10.886;2023-07-02T01:29:18;1.63;;;1.10;;
49450;SDS011;35336;48.400;10.886;2023-07-02T01:29:36;2.13;;;1.40;;
49450;SDS011;35336;48.400;10.886;2023-07-02T01:29:51;2.60;;;1.40;;
49450;SDS011;35336;48.400;10.886;2023-07-02T01:30:07;3.63;;;1.20;;
49450;SDS011;35336;48.400;10.886;2023-07-02T01:30:23;2.97;;;1.25;;
49450;SDS011;35336;48.400;10.886;2023-07-02T01:30:41;1.50;;;1.30;;
49450;SDS011;35336;48.400;10.886;2023-07-02T01:30:58;1.40;;;1.08;;
49450;SDS011;35336;48.400;10.886;2023-07-02T01:31:17;1.52;;;1.08;;
49450;SDS011;35336;48.400;10.886;2023-07-02T01:31:35;2.05;;;1.30;;
49450;SDS011;35336;48.400;10.886;2023-07-02T01:31:52;2.55;;;1.20;;
49450;SDS011;35336;48.400;10.886;2023-07-02T01:32:08;4.00;;;1.30;;
49450;SDS011;35336;48.400;10.886;2023-07-02T01:32:23;4.57;;;1.30;;
49450;SDS011;35336;48.400;10.886;2023-07-02T01:32:40;3.30;;;1.40;;
49450;SDS011;35336;48.400;10.886;2023-07-02T01:32:56;2.37;;;1.50;;
49450;SDS011;35336;48.400;10.886;2023-07-02T01:33:13;6.78;;;1.60;;
49450;SDS011;35336;48.400;10.886;2023-07-02T01:33:31;6.50;;;1.50;;
49450;SDS011;35336;48.400;10.886;2023-07-02T01:33:46;1.40;;;1.23;;
49450;SDS011;35336;48.400;10.886;2023-07-02T01:34:06;1.98;;;1.20;;
49450;SDS011;35336;48.400;10.886;2023-07-02T01:34:24;1.60;;;1.25;;
49450;SDS011;35336;48.400;10.886;2023-07-02T01:34:39;1.42;;;1.13;;
49450;SDS011;35336;48.400;10.886;2023-07-02T01:34:54;2.30;;;1.00;;
49450;SDS011;35336;48.400;10.886;2023-07-02T01:35:12;2.10;;;1.10;;
49450;SDS011;35336;48.400;10.886;2023-07-02T01:35:27;1.30;;;1.20;;
49450;SDS011;35336;48.400;10.886;2023-07-02T01:35:43;1.57;;;1.30;;
49450;SDS011;35336;48.400;10.886;2023-07-02T01:36:00;1.60;;;1.20;;
49450;SDS011;35336;48.400;10.886;2023-07-02T01:36:16;2.40;;;1.70;;
49450;SDS011;35336;48.400;10.886;2023-07-02T01:36:31;3.05;;;1.80;;
49450;SDS011;35336;48.400;10.886;2023-07-02T01:36:46;3.00;;;1.10;;
49450;SDS011;35336;48.400;10.886;2023-07-02T01:37:03;3.03;;;1.10;;
49450;SDS011;35336;48.400;10.886;2023-07-02T01:37:19;3.58;;;1.30;;
49450;SDS011;35336;48.400;10.886;2023-07-02T01:37:34;3.83;;;1.20;;
49450;SDS011;35336;48.400;10.886;2023-07-02T01:37:50;2.40;;;1.07;;
49450;SDS011;35336;48.400;10.886;2023-07-02T01:38:05;2.87;;;1.40;;
49450;SDS011;35336;48.400;10.886;2023-07-02T01:38:20;2.93;;;1.57;;
49450;SDS011;35336;48.400;10.886;2023-07-02T01:38:38;2.47;;;1.20;;
49450;SDS011;35336;48.400;10.886;2023-07-02T01:38:54;3.63;;;1.17;;
49450;SDS011;35336;48.400;10.886;2023-07-02T01:39:09;2.37;;;1.10;;
49450;SDS011;35336;48.400;10.886;2023-07-02T01:39:24;1.70;;;1.10;;